sensor_id;sensor_type;location;lat;lon;timestamp;P1;durP1;ratioP1;P2;durP2;ratioP2
82513;SDS011;72858;52.130;5.584;2023-09-19T00:00:22;4.00;;;1.83;;
82513;SDS011;72858;52.130;5.584;2023-09-19T00:02:55;5.75;;;1.88;;
82513;SDS011;72858;52.130;5.584;2023-09-19T00:05:24;3.92;;;1.75;;
82513;SDS011;72858;52.130;5.584;2023-09-19T00:07:53;4.03;;;1.77;;
82513;SDS011;72858;52.130;5.584;2023-09-19T00:10:22;4.05;;;1.60;;
82513;SDS011;72858;52.130;5.584;2023-09-19T00:12:49;5.50;;;1.88;;
82513;SDS011;72858;52.130;5.584;2023-09-19T00:15:14;4.43;;;1.73;;
82513;SDS011;72858;52.130;5.584;2023-09-19T00:17:42;4.28;;;1.80;;
82513;SDS011;72858;52.130;5.584;2023-09-19T00:20:08;3.50;;;1.60;;
82513;SDS011;72858;52.130;5.584;2023-09-19T00:22:41;4.40;;;1.70;;
82513;SDS011;72858;52.130;5.584;2023-09-19T00:25:09;5.72;;;1.58;;
82513;SDS011;72858;52.130;5.584;2023-09-19T00:27:39;2.90;;;1.50;;
82513;SDS011;72858;52.130;5.584;2023-09-19T00:30:05;4.13;;;1.80;;
82513;SDS011;72858;52.130;5.584;2023-09-19T00:32:30;3.40;;;1.55;;
82513;SDS011;72858;52.130;5.584;2023-09-19T00:34:55;4.17;;;1.60;;
82513;SDS011;72858;52.130;5.584;2023-09-19T00:37:21;3.75;;;1.48;;
82513;SDS011;72858;52.130;5.584;2023-09-19T00:39:46;2.83;;;1.30;;
82513;SDS011;72858;52.130;5.584;2023-09-19T00:42:17;4.47;;;1.47;;
82513;SDS011;72858;52.130;5.584;2023-09-19T00:44:44;4.15;;;1.27;;
82513;SDS011;72858;52.130;5.584;2023-09-19T00:47:09;5.20;;;1.80;;
82513;SDS011;72858;52.130;5.584;2023-09-19T00:49:40;2.03;;;1.25;;
82513;SDS011;72858;52.130;5.584;2023-09-19T00:52:05;4.43;;;1.83;;
82513;SDS011;72858;52.130;5.584;2023-09-19T00:54:31;5.75;;;1.70;;
82513;SDS011;72858;52.130;5.584;2023-09-19T00:56:58;3.42;;;1.58;;
82513;SDS011;72858;52.130;5.584;2023-09-19T00:59:23;2.53;;;1.40;;
82513;SDS011;72858;52.130;5.584;2023-09-19T01:01:49;3.20;;;1.37;;
82513;SDS011;72858;52.130;5.584;2023-09-19T01:04:18;4.15;;;1.80;;
82513;SDS011;72858;52.130;5.584;2023-09-19T01:06:43;4.23;;;1.43;;
82513;SDS011;72858;52.130;5.584;2023-09-19T01:09:10;3.70;;;1.70;;
82513;SDS011;72858;52.130;5.584;2023-09-19T01:11:37;4.18;;;1.70;;
82513;SDS011;72858;52.130;5.584;2023-09-19T01:27:27;2.97;;;1.30;;
82513;SDS011;72858;52.130;5.584;2023-09-19T01:30:10;3.40;;;1.27;;
82513;SDS011;72858;52.130;5.584;2023-09-19T01:32:38;3.33;;;1.70;;
82513;SDS011;72858;52.130;5.584;2023-09-19T01:35:04;3.63;;;1.35;;
82513;SDS011;72858;52.130;5.584;2023-09-19T01:37:29;2.45;;;1.27;;
82513;SDS011;72858;52.130;5.584;2023-09-19T01:47:30;2.80;;;1.20;;
82513;SDS011;72858;52.130;5.584;2023-09-19T01:52:57;3.38;;;1.60;;
82513;SDS011;72858;52.130;5.584;2023-09-19T01:55:26;3.70;;;1.50;;
82513;SDS011;72858;52.130;5.584;2023-09-19T01:57:54;4.43;;;1.52;;
82513;SDS011;72858;52.130;5.584;2023-09-19T02:00:22;3.40;;;1.50;;
82513;SDS011;72858;52.130;5.584;2023-09-19T02:02:48;2.63;;;1.20;;
82513;SDS011;72858;52.130;5.584;2023-09-19T02:05:21;3.67;;;1.20;;
82513;SDS011;72858;52.130;5.584;2023-09-19T02:07:48;3.88;;;1.40;;
82513;SDS011;72858;52.130;5.584;2023-09-19T02:10:13;4.78;;;1.73;;
82513;SDS011;72858;52.130;5.584;2023-09-19T02:12:39;2.92;;;1.38;;
82513;SDS011;72858;52.130;5.584;2023-09-19T02:15:04;4.70;;;1.77;;
82513;SDS011;72858;52.130;5.584;2023-09-19T02:17:32;4.03;;;1.60;;
82513;SDS011;72858;52.130;5.584;2023-09-19T02:19:57;5.13;;;1.85;;
82513;SDS011;72858;52.130;5.584;2023-09-19T02:22:23;4.65;;;1.83;;
82513;SDS011;72858;52.130;5.584;2023-09-19T02:24:49;3.20;;;1.40;;
82513;SDS011;72858;52.130;5.584;2023-09-19T02:27:16;4.13;;;1.50;;
82513;SDS011;72858;52.130;5.584;2023-09-19T02:29:41;3.33;;;1.63;;
82513;SDS011;72858;52.130;5.584;2023-09-19T02:32:06;2.47;;;1.38;;
82513;SDS011;72858;52.130;5.584;2023-09-19T02:34:32;3.03;;;1.73;;
82513;SDS011;72858;52.130;5.584;2023-09-19T02:36:57;5.07;;;1.85;;
82513;SDS011;72858;52.130;5.584;2023-09-19T02:39:22;5.33;;;1.53;;
82513;SDS011;72858;52.130;5.584;2023-09-19T02:41:48;4.55;;;1.73;;
82513;SDS011;72858;52.130;5.584;2023-09-19T02:44:13;4.93;;;2.08;;
82513;SDS011;72858;52.130;5.584;2023-09-19T02:46:39;4.50;;;1.38;;
82513;SDS011;72858;52.130;5.584;2023-09-19T02:49:04;7.07;;;1.77;;
82513;SDS011;72858;52.130;5.584;2023-09-19T02:51:32;4.10;;;1.52;;
82513;SDS011;72858;52.130;5.584;2023-09-19T02:54:00;5.07;;;1.85;;
82513;SDS011;72858;52.130;5.584;2023-09-19T02:56:25;3.33;;;1.60;;
82513;SDS011;72858;52.130;5.584;2023-09-19T02:58:50;4.45;;;2.00;;
82513;SDS011;72858;52.130;5.584;2023-09-19T03:01:16;5.85;;;1.77;;
82513;SDS011;72858;52.130;5.584;2023-09-19T03:03:43;3.60;;;1.83;;
82513;SDS011;72858;52.130;5.584;2023-09-19T03:06:08;4.68;;;1.70;;
82513;SDS011;72858;52.130;5.584;2023-09-19T03:08:38;7.05;;;2.25;;
82513;SDS011;72858;52.130;5.584;2023-09-19T03:11:04;4.70;;;1.83;;
82513;SDS011;72858;52.130;5.584;2023-09-19T03:13:31;5.05;;;2.00;;
82513;SDS011;72858;52.130;5.584;2023-09-19T03:15:56;5.30;;;1.77;;
82513;SDS011;72858;52.130;5.584;2023-09-19T03:18:23;3.97;;;1.52;;
82513;SDS011;72858;52.130;5.584;2023-09-19T03:20:54;4.43;;;1.70;;
82513;SDS011;72858;52.130;5.584;2023-09-19T03:23:20;5.63;;;2.08;;
82513;SDS011;72858;52.130;5.584;2023-09-19T03:25:45;5.27;;;2.00;;
82513;SDS011;72858;52.130;5.584;2023-09-19T03:28:10;6.33;;;2.17;;
82513;SDS011;72858;52.130;5.584;2023-09-19T03:30:35;6.10;;;1.77;;
82513;SDS011;72858;52.130;5.584;2023-09-19T03:33:00;4.60;;;1.97;;
82513;SDS011;72858;52.130;5.584;2023-09-19T03:35:25;4.40;;;1.90;;
82513;SDS011;72858;52.130;5.584;2023-09-19T03:37:51;5.87;;;1.73;;
82513;SDS011;72858;52.130;5.584;2023-09-19T03:40:17;4.75;;;1.88;;
82513;SDS011;72858;52.130;5.584;2023-09-19T03:42:45;5.45;;;1.88;;
82513;SDS011;72858;52.130;5.584;2023-09-19T03:45:11;7.00;;;1.95;;
82513;SDS011;72858;52.130;5.584;2023-09-19T03:47:37;5.47;;;2.15;;
82513;SDS011;72858;52.130;5.584;2023-09-19T03:50:04;4.95;;;1.88;;
82513;SDS011;72858;52.130;5.584;2023-09-19T03:52:29;5.00;;;2.15;;
82513;SDS011;72858;52.130;5.584;2023-09-19T03:54:54;5.13;;;2.20;;
82513;SDS011;72858;52.130;5.584;2023-09-19T03:57:19;5.60;;;1.90;;
82513;SDS011;72858;52.130;5.584;2023-09-19T03:59:46;4.78;;;1.90;;
82513;SDS011;72858;52.130;5.584;2023-09-19T04:02:11;5.68;;;1.67;;
82513;SDS011;72858;52.130;5.584;2023-09-19T04:04:47;3.78;;;1.80;;
82513;SDS011;72858;52.130;5.584;2023-09-19T04:07:12;3.38;;;1.65;;
82513;SDS011;72858;52.130;5.584;2023-09-19T04:09:37;3.50;;;1.73;;
82513;SDS011;72858;52.130;5.584;2023-09-19T04:12:03;5.83;;;2.10;;
82513;SDS011;72858;52.130;5.584;2023-09-19T04:14:28;5.03;;;1.60;;
82513;SDS011;72858;52.130;5.584;2023-09-19T04:16:54;6.40;;;1.95;;
82513;SDS011;72858;52.130;5.584;2023-09-19T04:19:19;5.20;;;1.93;;
82513;SDS011;72858;52.130;5.584;2023-09-19T04:21:47;6.93;;;2.28;;
82513;SDS011;72858;52.130;5.584;2023-09-19T04:24:12;6.43;;;1.90;;
82513;SDS011;72858;52.130;5.584;2023-09-19T04:26:38;4.82;;;1.52;;
82513;SDS011;72858;52.130;5.584;2023-09-19T04:29:03;6.23;;;2.00;;
82513;SDS011;72858;52.130;5.584;2023-09-19T04:31:29;6.13;;;2.25;;
82513;SDS011;72858;52.130;5.584;2023-09-19T04:33:55;5.07;;;2.05;;
82513;SDS011;72858;52.130;5.584;2023-09-19T04:36:20;5.18;;;1.73;;
82513;SDS011;72858;52.130;5.584;2023-09-19T04:38:46;7.60;;;1.95;;
82513;SDS011;72858;52.130;5.584;2023-09-19T04:41:11;5.77;;;1.60;;
82513;SDS011;72858;52.130;5.584;2023-09-19T04:43:36;7.43;;;2.27;;
82513;SDS011;72858;52.130;5.584;2023-09-19T04:46:01;5.47;;;1.90;;
82513;SDS011;72858;52.130;5.584;2023-09-19T04:48:26;6.33;;;1.93;;
82513;SDS011;72858;52.130;5.584;2023-09-19T04:50:54;6.53;;;2.17;;
82513;SDS011;72858;52.130;5.584;2023-09-19T04:53:19;6.60;;;2.20;;
82513;SDS011;72858;52.130;5.584;2023-09-19T04:55:52;4.65;;;1.75;;
82513;SDS011;72858;52.130;5.584;2023-09-19T04:58:18;3.88;;;2.05;;
82513;SDS011;72858;52.130;5.584;2023-09-19T05:00:44;4.55;;;2.33;;
82513;SDS011;72858;52.130;5.584;2023-09-19T05:03:09;4.63;;;1.98;;
82513;SDS011;72858;52.130;5.584;2023-09-19T05:05:34;3.83;;;1.80;;
82513;SDS011;72858;52.130;5.584;2023-09-19T05:08:01;3.60;;;1.58;;
82513;SDS011;72858;52.130;5.584;2023-09-19T05:10:30;4.40;;;2.10;;
82513;SDS011;72858;52.130;5.584;2023-09-19T05:12:58;4.88;;;1.70;;
82513;SDS011;72858;52.130;5.584;2023-09-19T05:15:24;4.78;;;1.80;;
82513;SDS011;72858;52.130;5.584;2023-09-19T05:17:52;5.43;;;1.63;;
82513;SDS011;72858;52.130;5.584;2023-09-19T05:20:19;4.50;;;2.10;;
82513;SDS011;72858;52.130;5.584;2023-09-19T05:23:03;4.80;;;1.67;;
82513;SDS011;72858;52.130;5.584;2023-09-19T05:25:33;4.82;;;1.90;;
82513;SDS011;72858;52.130;5.584;2023-09-19T05:28:02;3.90;;;1.65;;
82513;SDS011;72858;52.130;5.584;2023-09-19T05:30:29;3.72;;;1.42;;
82513;SDS011;72858;52.130;5.584;2023-09-19T05:32:55;6.47;;;1.92;;
82513;SDS011;72858;52.130;5.584;2023-09-19T05:35:21;7.10;;;2.33;;
82513;SDS011;72858;52.130;5.584;2023-09-19T05:37:53;6.30;;;1.85;;
82513;SDS011;72858;52.130;5.584;2023-09-19T05:40:20;5.63;;;1.90;;
82513;SDS011;72858;52.130;5.584;2023-09-19T05:42:45;4.43;;;1.80;;
82513;SDS011;72858;52.130;5.584;2023-09-19T05:45:11;6.05;;;1.85;;
82513;SDS011;72858;52.130;5.584;2023-09-19T05:47:39;5.55;;;1.80;;
82513;SDS011;72858;52.130;5.584;2023-09-19T05:50:05;4.40;;;1.90;;
82513;SDS011;72858;52.130;5.584;2023-09-19T05:52:32;7.47;;;1.80;;
82513;SDS011;72858;52.130;5.584;2023-09-19T05:54:58;5.10;;;1.80;;
82513;SDS011;72858;52.130;5.584;2023-09-19T05:57:23;9.27;;;1.90;;
82513;SDS011;72858;52.130;5.584;2023-09-19T05:59:49;5.03;;;1.90;;
82513;SDS011;72858;52.130;5.584;2023-09-19T06:02:15;5.28;;;2.05;;
82513;SDS011;72858;52.130;5.584;2023-09-19T06:04:40;5.17;;;2.00;;
82513;SDS011;72858;52.130;5.584;2023-09-19T06:07:06;3.87;;;1.67;;
82513;SDS011;72858;52.130;5.584;2023-09-19T06:09:31;4.90;;;1.85;;
82513;SDS011;72858;52.130;5.584;2023-09-19T06:11:58;3.88;;;1.58;;
82513;SDS011;72858;52.130;5.584;2023-09-19T06:14:28;4.60;;;1.45;;
82513;SDS011;72858;52.130;5.584;2023-09-19T06:16:53;3.90;;;1.80;;
82513;SDS011;72858;52.130;5.584;2023-09-19T06:19:19;4.40;;;1.70;;
82513;SDS011;72858;52.130;5.584;2023-09-19T06:21:47;5.32;;;2.03;;
82513;SDS011;72858;52.130;5.584;2023-09-19T06:24:13;8.10;;;2.30;;
82513;SDS011;72858;52.130;5.584;2023-09-19T06:26:38;6.73;;;2.13;;
82513;SDS011;72858;52.130;5.584;2023-09-19T06:29:03;5.63;;;1.77;;
82513;SDS011;72858;52.130;5.584;2023-09-19T06:31:29;6.30;;;2.38;;
82513;SDS011;72858;52.130;5.584;2023-09-19T06:33:56;5.55;;;2.00;;
82513;SDS011;72858;52.130;5.584;2023-09-19T08:52:59;18.63;;;3.47;;
82513;SDS011;72858;52.130;5.584;2023-09-19T08:55:28;15.88;;;4.68;;
82513;SDS011;72858;52.130;5.584;2023-09-19T08:58:01;19.98;;;4.40;;
82513;SDS011;72858;52.130;5.584;2023-09-19T09:00:27;15.00;;;4.07;;
82513;SDS011;72858;52.130;5.584;2023-09-19T09:02:52;13.45;;;3.50;;
82513;SDS011;72858;52.130;5.584;2023-09-19T09:05:19;16.65;;;3.45;;
82513;SDS011;72858;52.130;5.584;2023-09-19T09:07:47;12.60;;;3.42;;
82513;SDS011;72858;52.130;5.584;2023-09-19T09:10:15;14.77;;;3.47;;
82513;SDS011;72858;52.130;5.584;2023-09-19T09:12:40;11.50;;;3.13;;
82513;SDS011;72858;52.130;5.584;2023-09-19T09:15:09;15.02;;;3.08;;
82513;SDS011;72858;52.130;5.584;2023-09-19T09:17:36;15.82;;;3.80;;
82513;SDS011;72858;52.130;5.584;2023-09-19T09:20:02;11.20;;;3.25;;
82513;SDS011;72858;52.130;5.584;2023-09-19T09:22:28;14.35;;;3.40;;
82513;SDS011;72858;52.130;5.584;2023-09-19T09:24:56;17.07;;;3.53;;
82513;SDS011;72858;52.130;5.584;2023-09-19T09:27:26;12.05;;;3.10;;
82513;SDS011;72858;52.130;5.584;2023-09-19T09:29:52;12.13;;;2.70;;
82513;SDS011;72858;52.130;5.584;2023-09-19T09:34:45;16.08;;;2.65;;
82513;SDS011;72858;52.130;5.584;2023-09-19T09:37:14;10.18;;;3.28;;
82513;SDS011;72858;52.130;5.584;2023-09-19T09:39:40;11.65;;;2.75;;
82513;SDS011;72858;52.130;5.584;2023-09-19T09:42:23;17.05;;;3.40;;
82513;SDS011;72858;52.130;5.584;2023-09-19T09:48:02;14.07;;;3.38;;
82513;SDS011;72858;52.130;5.584;2023-09-19T09:50:45;10.13;;;2.92;;
82513;SDS011;72858;52.130;5.584;2023-09-19T09:53:24;14.07;;;3.35;;
82513;SDS011;72858;52.130;5.584;2023-09-19T09:55:59;12.98;;;2.83;;
82513;SDS011;72858;52.130;5.584;2023-09-19T09:58:25;23.08;;;4.05;;
82513;SDS011;72858;52.130;5.584;2023-09-19T10:00:54;15.43;;;3.53;;
82513;SDS011;72858;52.130;5.584;2023-09-19T10:03:30;11.18;;;2.80;;
82513;SDS011;72858;52.130;5.584;2023-09-19T10:05:56;18.42;;;3.75;;
82513;SDS011;72858;52.130;5.584;2023-09-19T10:08:23;12.20;;;2.80;;
82513;SDS011;72858;52.130;5.584;2023-09-19T10:10:48;14.50;;;3.35;;
82513;SDS011;72858;52.130;5.584;2023-09-19T10:13:28;13.55;;;2.85;;
82513;SDS011;72858;52.130;5.584;2023-09-19T10:15:54;8.45;;;2.55;;
82513;SDS011;72858;52.130;5.584;2023-09-19T10:20:45;11.23;;;2.35;;
82513;SDS011;72858;52.130;5.584;2023-09-19T10:23:11;13.77;;;3.70;;
82513;SDS011;72858;52.130;5.584;2023-09-19T10:25:40;14.48;;;3.05;;
82513;SDS011;72858;52.130;5.584;2023-09-19T10:28:07;17.63;;;2.90;;
82513;SDS011;72858;52.130;5.584;2023-09-19T10:30:45;11.57;;;2.35;;
82513;SDS011;72858;52.130;5.584;2023-09-19T10:33:12;16.80;;;2.97;;
82513;SDS011;72858;52.130;5.584;2023-09-19T10:35:39;13.20;;;2.72;;
82513;SDS011;72858;52.130;5.584;2023-09-19T10:38:07;14.65;;;3.13;;
82513;SDS011;72858;52.130;5.584;2023-09-19T10:40:34;12.23;;;2.85;;
82513;SDS011;72858;52.130;5.584;2023-09-19T10:43:02;11.45;;;2.45;;
82513;SDS011;72858;52.130;5.584;2023-09-19T10:45:29;10.50;;;2.65;;
82513;SDS011;72858;52.130;5.584;2023-09-19T10:47:58;13.30;;;2.70;;
82513;SDS011;72858;52.130;5.584;2023-09-19T10:50:23;10.80;;;2.88;;
82513;SDS011;72858;52.130;5.584;2023-09-19T10:52:49;10.75;;;3.05;;
82513;SDS011;72858;52.130;5.584;2023-09-19T10:55:17;12.82;;;3.38;;
82513;SDS011;72858;52.130;5.584;2023-09-19T10:57:44;10.25;;;2.70;;
82513;SDS011;72858;52.130;5.584;2023-09-19T11:00:09;13.70;;;2.88;;
82513;SDS011;72858;52.130;5.584;2023-09-19T11:05:32;16.85;;;4.80;;
82513;SDS011;72858;52.130;5.584;2023-09-19T11:07:59;10.50;;;2.65;;
82513;SDS011;72858;52.130;5.584;2023-09-19T11:10:44;14.98;;;2.97;;
82513;SDS011;72858;52.130;5.584;2023-09-19T11:13:24;11.05;;;2.72;;
82513;SDS011;72858;52.130;5.584;2023-09-19T11:26:41;10.10;;;3.03;;
82513;SDS011;72858;52.130;5.584;2023-09-19T11:29:24;10.40;;;2.72;;
82513;SDS011;72858;52.130;5.584;2023-09-19T11:31:50;11.82;;;2.35;;
82513;SDS011;72858;52.130;5.584;2023-09-19T11:37:00;15.60;;;2.92;;
82513;SDS011;72858;52.130;5.584;2023-09-19T11:39:29;9.52;;;2.60;;
82513;SDS011;72858;52.130;5.584;2023-09-19T11:41:54;16.27;;;2.70;;
82513;SDS011;72858;52.130;5.584;2023-09-19T11:46:55;7.53;;;2.08;;
82513;SDS011;72858;52.130;5.584;2023-09-19T11:49:28;7.63;;;2.35;;
82513;SDS011;72858;52.130;5.584;2023-09-19T11:51:55;12.18;;;2.50;;
82513;SDS011;72858;52.130;5.584;2023-09-19T11:54:20;12.65;;;2.10;;
82513;SDS011;72858;52.130;5.584;2023-09-19T11:56:53;8.95;;;2.25;;
82513;SDS011;72858;52.130;5.584;2023-09-19T11:59:28;7.47;;;1.85;;
82513;SDS011;72858;52.130;5.584;2023-09-19T12:01:58;7.53;;;2.17;;
82513;SDS011;72858;52.130;5.584;2023-09-19T12:04:39;6.45;;;1.75;;
82513;SDS011;72858;52.130;5.584;2023-09-19T12:09:35;8.57;;;2.83;;
82513;SDS011;72858;52.130;5.584;2023-09-19T12:12:00;11.97;;;2.13;;
82513;SDS011;72858;52.130;5.584;2023-09-19T12:14:26;8.73;;;1.80;;
82513;SDS011;72858;52.130;5.584;2023-09-19T12:16:54;8.02;;;1.60;;
82513;SDS011;72858;52.130;5.584;2023-09-19T12:19:21;7.25;;;1.58;;
82513;SDS011;72858;52.130;5.584;2023-09-19T12:22:00;4.78;;;1.50;;
82513;SDS011;72858;52.130;5.584;2023-09-19T12:24:34;5.82;;;1.30;;
82513;SDS011;72858;52.130;5.584;2023-09-19T12:27:05;5.07;;;1.58;;
82513;SDS011;72858;52.130;5.584;2023-09-19T12:29:31;6.30;;;2.10;;
82513;SDS011;72858;52.130;5.584;2023-09-19T12:31:58;10.93;;;1.42;;
82513;SDS011;72858;52.130;5.584;2023-09-19T12:37:03;6.40;;;1.40;;
82513;SDS011;72858;52.130;5.584;2023-09-19T12:39:28;4.07;;;1.38;;
82513;SDS011;72858;52.130;5.584;2023-09-19T12:41:54;3.85;;;1.45;;
82513;SDS011;72858;52.130;5.584;2023-09-19T12:44:20;7.70;;;1.42;;
82513;SDS011;72858;52.130;5.584;2023-09-19T12:46:45;15.32;;;1.80;;
82513;SDS011;72858;52.130;5.584;2023-09-19T12:51:47;4.53;;;1.50;;
82513;SDS011;72858;52.130;5.584;2023-09-19T12:54:13;3.45;;;1.25;;
82513;SDS011;72858;52.130;5.584;2023-09-19T12:56:42;4.97;;;1.13;;
82513;SDS011;72858;52.130;5.584;2023-09-19T12:59:14;5.70;;;1.30;;
82513;SDS011;72858;52.130;5.584;2023-09-19T13:01:40;6.13;;;1.40;;
82513;SDS011;72858;52.130;5.584;2023-09-19T13:04:19;5.35;;;1.38;;
82513;SDS011;72858;52.130;5.584;2023-09-19T13:06:45;3.60;;;1.23;;
82513;SDS011;72858;52.130;5.584;2023-09-19T13:09:10;4.47;;;1.20;;
82513;SDS011;72858;52.130;5.584;2023-09-19T13:11:37;4.57;;;1.48;;
82513;SDS011;72858;52.130;5.584;2023-09-19T13:14:18;8.93;;;1.58;;
82513;SDS011;72858;52.130;5.584;2023-09-19T13:19:41;8.13;;;1.40;;
82513;SDS011;72858;52.130;5.584;2023-09-19T13:24:54;3.65;;;1.20;;
82513;SDS011;72858;52.130;5.584;2023-09-19T13:27:19;6.17;;;1.40;;
82513;SDS011;72858;52.130;5.584;2023-09-19T13:29:44;7.13;;;1.20;;
82513;SDS011;72858;52.130;5.584;2023-09-19T13:32:09;7.00;;;1.50;;
82513;SDS011;72858;52.130;5.584;2023-09-19T13:34:36;7.22;;;1.83;;
82513;SDS011;72858;52.130;5.584;2023-09-19T13:37:02;4.30;;;0.90;;
82513;SDS011;72858;52.130;5.584;2023-09-19T13:39:28;4.88;;;2.15;;
82513;SDS011;72858;52.130;5.584;2023-09-19T13:41:54;4.43;;;1.10;;
82513;SDS011;72858;52.130;5.584;2023-09-19T13:44:20;3.75;;;1.10;;
82513;SDS011;72858;52.130;5.584;2023-09-19T13:46:45;2.83;;;1.10;;
82513;SDS011;72858;52.130;5.584;2023-09-19T13:49:11;6.82;;;1.00;;
82513;SDS011;72858;52.130;5.584;2023-09-19T13:51:36;4.03;;;1.38;;
82513;SDS011;72858;52.130;5.584;2023-09-19T13:54:01;4.82;;;1.10;;
82513;SDS011;72858;52.130;5.584;2023-09-19T13:56:27;4.75;;;1.23;;
82513;SDS011;72858;52.130;5.584;2023-09-19T13:58:56;3.78;;;1.10;;
82513;SDS011;72858;52.130;5.584;2023-09-19T14:01:21;5.68;;;1.35;;
82513;SDS011;72858;52.130;5.584;2023-09-19T14:03:46;3.67;;;1.03;;
82513;SDS011;72858;52.130;5.584;2023-09-19T14:06:15;3.85;;;1.10;;
82513;SDS011;72858;52.130;5.584;2023-09-19T14:08:40;5.85;;;1.20;;
82513;SDS011;72858;52.130;5.584;2023-09-19T14:11:06;7.00;;;1.20;;
82513;SDS011;72858;52.130;5.584;2023-09-19T14:13:33;4.47;;;1.30;;
82513;SDS011;72858;52.130;5.584;2023-09-19T14:16:02;4.80;;;1.30;;
82513;SDS011;72858;52.130;5.584;2023-09-19T14:18:29;3.30;;;1.40;;
82513;SDS011;72858;52.130;5.584;2023-09-19T14:20:54;6.85;;;1.30;;
82513;SDS011;72858;52.130;5.584;2023-09-19T14:23:19;2.97;;;1.30;;
82513;SDS011;72858;52.130;5.584;2023-09-19T14:25:44;5.40;;;1.50;;
82513;SDS011;72858;52.130;5.584;2023-09-19T14:28:10;5.00;;;1.17;;
82513;SDS011;72858;52.130;5.584;2023-09-19T14:30:35;8.93;;;1.40;;
82513;SDS011;72858;52.130;5.584;2023-09-19T14:33:02;3.58;;;1.15;;
82513;SDS011;72858;52.130;5.584;2023-09-19T14:35:27;4.63;;;1.27;;
82513;SDS011;72858;52.130;5.584;2023-09-19T14:37:52;4.27;;;1.27;;
82513;SDS011;72858;52.130;5.584;2023-09-19T14:40:18;4.83;;;1.50;;
82513;SDS011;72858;52.130;5.584;2023-09-19T14:42:43;5.97;;;1.40;;
82513;SDS011;72858;52.130;5.584;2023-09-19T14:45:09;6.53;;;1.52;;
82513;SDS011;72858;52.130;5.584;2023-09-19T14:47:34;3.45;;;1.23;;
82513;SDS011;72858;52.130;5.584;2023-09-19T14:50:02;5.35;;;1.50;;
82513;SDS011;72858;52.130;5.584;2023-09-19T14:52:31;6.82;;;1.38;;
82513;SDS011;72858;52.130;5.584;2023-09-19T14:54:57;2.85;;;1.33;;
82513;SDS011;72858;52.130;5.584;2023-09-19T14:57:22;4.57;;;1.67;;
82513;SDS011;72858;52.130;5.584;2023-09-19T14:59:49;6.78;;;1.70;;
82513;SDS011;72858;52.130;5.584;2023-09-19T15:02:14;7.05;;;1.70;;
82513;SDS011;72858;52.130;5.584;2023-09-19T15:04:41;4.65;;;1.35;;
82513;SDS011;72858;52.130;5.584;2023-09-19T15:07:09;8.23;;;2.10;;
82513;SDS011;72858;52.130;5.584;2023-09-19T15:09:34;7.37;;;1.80;;
82513;SDS011;72858;52.130;5.584;2023-09-19T15:12:00;5.78;;;1.70;;
82513;SDS011;72858;52.130;5.584;2023-09-19T15:14:26;3.83;;;1.67;;
82513;SDS011;72858;52.130;5.584;2023-09-19T15:16:51;5.05;;;1.98;;
82513;SDS011;72858;52.130;5.584;2023-09-19T15:19:17;7.35;;;1.67;;
82513;SDS011;72858;52.130;5.584;2023-09-19T15:21:43;9.52;;;2.92;;
82513;SDS011;72858;52.130;5.584;2023-09-19T15:24:08;5.53;;;1.70;;
82513;SDS011;72858;52.130;5.584;2023-09-19T15:26:35;4.80;;;2.13;;
82513;SDS011;72858;52.130;5.584;2023-09-19T15:29:03;6.72;;;2.15;;
82513;SDS011;72858;52.130;5.584;2023-09-19T15:31:30;6.03;;;2.13;;
82513;SDS011;72858;52.130;5.584;2023-09-19T15:33:55;5.35;;;2.08;;
82513;SDS011;72858;52.130;5.584;2023-09-19T15:36:20;6.65;;;2.08;;
82513;SDS011;72858;52.130;5.584;2023-09-19T15:41:24;5.97;;;2.08;;
82513;SDS011;72858;52.130;5.584;2023-09-19T15:43:50;6.25;;;2.13;;
82513;SDS011;72858;52.130;5.584;2023-09-19T15:46:15;9.32;;;2.50;;
82513;SDS011;72858;52.130;5.584;2023-09-19T15:48:40;8.85;;;2.67;;
82513;SDS011;72858;52.130;5.584;2023-09-19T15:51:06;5.50;;;1.92;;
82513;SDS011;72858;52.130;5.584;2023-09-19T15:53:38;5.10;;;2.28;;
82513;SDS011;72858;52.130;5.584;2023-09-19T15:56:06;7.93;;;2.28;;
82513;SDS011;72858;52.130;5.584;2023-09-19T15:58:31;10.73;;;2.63;;
82513;SDS011;72858;52.130;5.584;2023-09-19T16:00:57;6.22;;;2.17;;
82513;SDS011;72858;52.130;5.584;2023-09-19T16:03:26;10.03;;;2.13;;
82513;SDS011;72858;52.130;5.584;2023-09-19T16:05:52;7.65;;;2.10;;
82513;SDS011;72858;52.130;5.584;2023-09-19T16:08:17;9.03;;;2.00;;
82513;SDS011;72858;52.130;5.584;2023-09-19T16:10:42;7.45;;;2.05;;
82513;SDS011;72858;52.130;5.584;2023-09-19T16:13:08;5.33;;;3.00;;
82513;SDS011;72858;52.130;5.584;2023-09-19T16:15:33;3.83;;;2.07;;
82513;SDS011;72858;52.130;5.584;2023-09-19T16:18:04;6.22;;;2.00;;
82513;SDS011;72858;52.130;5.584;2023-09-19T16:20:30;5.27;;;2.13;;
82513;SDS011;72858;52.130;5.584;2023-09-19T16:22:55;8.13;;;2.35;;
82513;SDS011;72858;52.130;5.584;2023-09-19T16:25:20;6.80;;;1.80;;
82513;SDS011;72858;52.130;5.584;2023-09-19T16:27:46;7.20;;;2.30;;
82513;SDS011;72858;52.130;5.584;2023-09-19T16:30:12;5.72;;;2.65;;
82513;SDS011;72858;52.130;5.584;2023-09-19T16:32:41;6.40;;;2.15;;
82513;SDS011;72858;52.130;5.584;2023-09-19T16:35:09;7.10;;;2.42;;
82513;SDS011;72858;52.130;5.584;2023-09-19T16:37:36;9.50;;;2.15;;
82513;SDS011;72858;52.130;5.584;2023-09-19T16:40:01;6.28;;;2.22;;
82513;SDS011;72858;52.130;5.584;2023-09-19T16:42:29;4.28;;;1.83;;
82513;SDS011;72858;52.130;5.584;2023-09-19T16:44:54;4.57;;;2.50;;
82513;SDS011;72858;52.130;5.584;2023-09-19T16:47:19;5.57;;;1.80;;
82513;SDS011;72858;52.130;5.584;2023-09-19T16:49:44;5.10;;;2.00;;
82513;SDS011;72858;52.130;5.584;2023-09-19T16:52:10;14.20;;;2.10;;
82513;SDS011;72858;52.130;5.584;2023-09-19T16:54:35;5.45;;;2.10;;
82513;SDS011;72858;52.130;5.584;2023-09-19T16:57:00;5.93;;;1.83;;
82513;SDS011;72858;52.130;5.584;2023-09-19T16:59:27;4.70;;;1.73;;
82513;SDS011;72858;52.130;5.584;2023-09-19T17:01:52;6.93;;;1.90;;
82513;SDS011;72858;52.130;5.584;2023-09-19T17:04:18;5.57;;;2.28;;
82513;SDS011;72858;52.130;5.584;2023-09-19T17:06:43;9.17;;;2.30;;
82513;SDS011;72858;52.130;5.584;2023-09-19T17:09:11;7.68;;;2.22;;
82513;SDS011;72858;52.130;5.584;2023-09-19T17:11:37;7.32;;;2.25;;
82513;SDS011;72858;52.130;5.584;2023-09-19T17:14:03;7.55;;;2.33;;
82513;SDS011;72858;52.130;5.584;2023-09-19T17:16:29;8.05;;;2.15;;
82513;SDS011;72858;52.130;5.584;2023-09-19T17:18:55;9.55;;;2.17;;
82513;SDS011;72858;52.130;5.584;2023-09-19T17:21:21;10.43;;;2.95;;
82513;SDS011;72858;52.130;5.584;2023-09-19T17:23:46;10.07;;;1.80;;
82513;SDS011;72858;52.130;5.584;2023-09-19T17:26:12;7.85;;;2.17;;
82513;SDS011;72858;52.130;5.584;2023-09-19T17:28:42;10.23;;;3.45;;
82513;SDS011;72858;52.130;5.584;2023-09-19T17:31:11;5.20;;;2.08;;
82513;SDS011;72858;52.130;5.584;2023-09-19T17:33:37;8.55;;;2.55;;
82513;SDS011;72858;52.130;5.584;2023-09-19T17:36:06;8.52;;;2.55;;
82513;SDS011;72858;52.130;5.584;2023-09-19T17:38:32;5.65;;;1.88;;
82513;SDS011;72858;52.130;5.584;2023-09-19T17:41:00;10.40;;;2.80;;
82513;SDS011;72858;52.130;5.584;2023-09-19T17:43:27;5.88;;;2.45;;
82513;SDS011;72858;52.130;5.584;2023-09-19T17:45:53;7.23;;;2.00;;
82513;SDS011;72858;52.130;5.584;2023-09-19T17:48:18;7.90;;;2.30;;
82513;SDS011;72858;52.130;5.584;2023-09-19T17:50:43;7.80;;;2.50;;
82513;SDS011;72858;52.130;5.584;2023-09-19T17:53:08;9.52;;;2.60;;
82513;SDS011;72858;52.130;5.584;2023-09-19T17:55:37;5.05;;;2.25;;
82513;SDS011;72858;52.130;5.584;2023-09-19T17:58:03;5.60;;;2.22;;
82513;SDS011;72858;52.130;5.584;2023-09-19T18:00:29;10.45;;;3.10;;
82513;SDS011;72858;52.130;5.584;2023-09-19T18:02:54;6.63;;;2.20;;
82513;SDS011;72858;52.130;5.584;2023-09-19T18:05:19;7.32;;;2.70;;
82513;SDS011;72858;52.130;5.584;2023-09-19T18:07:46;8.98;;;2.60;;